Time;durP1;ratioP1;P1;durP2;ratioP2;P2;SDS_P1;SDS_P2;PMS_P1;PMS_P2;Temp;Humidity;BMP_temperature;BMP_pressure;BME280_temperature;BME280_humidity;BME280_pressure;Samples;Min_cycle;Max_cycle;Signal;HPM_P1;HPM_P2
2022/04/15 00:00:20;;;;;;;12.88;6.28;;;;;;;10.32;51.51;101473.16;4902275;29;20055;-87
2022/04/15 00:02:48;;;;;;;13.25;6.93;;;;;;;10.10;52.22;101455.38;4916804;29;20035;-87
2022/04/15 00:05:40;;;;;;;13.57;7.45;;;;;;;10.06;52.84;101453.13;4917033;29;20119;-87
2022/04/15 00:08:17;;;;;;;15.27;7.70;;;;;;;9.94;53.49;101449.69;4927963;29;20476;-86
2022/04/15 00:10:45;;;;;;;16.38;8.73;;;;;;;10.05;52.98;101454.13;4931695;29;20047;-87
2022/04/15 00:13:29;;;;;;;;;;;;;;;;;;;;;
2022/04/15 00:16:17;;;;;;;14.35;9.35;;;;;;;9.79;53.73;101451.91;4901853;29;20040;-89
2022/04/15 00:18:46;;;;;;;15.20;9.07;;;;;;;9.69;53.62;101443.84;4931040;29;20358;-89
2022/04/15 00:21:22;;;;;;;19.45;10.07;;;;;;;9.63;54.08;101451.59;4610972;29;8928601;-87
2022/04/15 00:23:57;;;;;;;21.58;10.13;;;;;;;9.62;53.95;101439.13;4934456;29;20051;-87
2022/04/15 00:26:33;;;;;;;19.50;10.57;;;;;;;9.67;54.19;101442.28;4919688;29;20039;-89
2022/04/15 00:29:06;;;;;;;24.42;11.10;;;;;;;9.56;54.42;101450.41;4933741;29;20473;-87
2022/04/15 00:31:37;;;;;;;24.05;11.50;;;;;;;9.47;54.69;101436.81;4908047;29;20061;-87
2022/04/15 00:34:05;;;;;;;23.15;12.05;;;;;;;9.54;54.73;101447.03;4909161;29;20251;-89
2022/04/15 00:36:46;;;;;;;25.73;13.00;;;;;;;9.50;54.93;101457.16;4906720;29;20043;-87
2022/04/15 00:39:22;;;;;;;27.60;12.85;;;;;;;9.35;54.99;101435.22;4934170;29;20039;-88
2022/04/15 00:41:54;;;;;;;24.95;12.27;;;;;;;9.51;54.90;101464.25;4918220;29;20035;-87
2022/04/15 00:44:25;;;;;;;24.27;12.68;;;;;;;9.43;55.26;101454.16;4928726;29;20036;-87
2022/04/15 00:46:52;;;;;;;27.05;13.68;;;;;;;9.46;55.21;101448.53;4916390;29;20158;-88
2022/04/15 00:49:23;;;;;;;23.98;13.43;;;;;;;9.39;55.15;101439.34;4931682;29;20076;-87
2022/04/15 00:52:24;;;;;;;26.27;14.15;;;;;;;9.37;55.47;101427.88;4904709;29;20043;-88
2022/04/15 00:54:52;;;;;;;28.20;12.65;;;;;;;9.49;55.47;101444.75;4910972;29;20044;-89
2022/04/15 00:57:26;;;;;;;;;;;;;;;9.50;55.25;101447.31;4900726;29;20524;-88
2022/04/15 01:00:23;;;;;;;30.70;13.38;;;;;;;9.17;56.03;101424.22;4916059;29;20448;-88
2022/04/15 01:02:53;;;;;;;21.95;12.23;;;;;;;9.12;55.98;101421.09;4915255;29;20040;-86
2022/04/15 01:05:22;;;;;;;18.17;10.93;;;;;;;9.22;55.84;101439.94;4877521;29;20028;-88
2022/04/15 01:07:50;;;;;;;17.52;10.80;;;;;;;9.21;56.05;101425.69;4945959;29;20036;-88
2022/04/15 01:10:23;;;;;;;20.95;11.55;;;;;;;9.32;55.88;101427.44;4917186;29;20040;-92
2022/04/15 01:12:57;;;;;;;21.17;11.25;;;;;;;9.34;55.68;101420.09;4906277;29;20051;-89
2022/04/15 01:15:28;;;;;;;18.90;9.80;;;;;;;9.25;56.04;101439.69;4902259;29;20028;-88
2022/04/15 01:17:56;;;;;;;16.65;9.60;;;;;;;9.20;55.81;101424.00;4935515;29;20047;-92
2022/04/15 01:20:25;;;;;;;18.35;10.25;;;;;;;9.24;55.91;101429.91;4906608;29;20054;-87
2022/04/15 01:23:16;;;;;;;18.92;10.75;;;;;;;9.21;55.82;101428.34;4914619;29;20103;-88
2022/04/15 01:29:16;;;;;;;23.15;10.10;;;;;;;9.23;55.94;101450.53;4929038;29;20028;-88
2022/04/15 01:31:56;;;;;;;22.92;10.52;;;;;;;9.11;55.78;101421.22;4934479;29;20115;-90
2022/04/15 01:34:36;;;;;;;16.55;10.07;;;;;;;9.01;55.96;101416.69;4926021;29;20092;-90
2022/04/15 01:37:10;;;;;;;19.00;11.02;;;;;;;8.94;56.29;101420.84;4922242;29;20036;-89
2022/04/15 01:39:37;;;;;;;17.20;10.40;;;;;;;8.98;56.72;101430.34;4918783;29;20481;-89
2022/04/15 01:42:11;;;;;;;19.55;10.38;;;;;;;8.93;56.88;101416.47;4896450;29;20493;-91
2022/04/15 01:44:55;;;;;;;20.00;11.20;;;;;;;9.04;56.84;101420.94;4898769;29;20044;-88
2022/04/15 01:47:28;;;;;;;19.13;10.43;;;;;;;9.09;56.61;101432.97;4901863;29;20040;-87
2022/04/15 01:49:53;;;;;;;24.77;11.02;;;;;;;9.04;57.14;101426.31;4917097;29;20047;-90
2022/04/15 01:52:25;;;;;;;17.60;9.73;;;;;;;9.11;56.84;101431.97;4917302;29;20036;-90
2022/04/15 01:54:50;;;;;;;18.88;10.13;;;;;;;8.96;57.02;101410.84;4917558;29;20039;-89
2022/04/15 01:57:18;;;;;;;20.52;8.90;;;;;;;8.96;56.64;101400.13;4914844;29;20524;-89
2022/04/15 01:59:52;;;;;;;16.17;8.65;;;;;;;9.09;56.35;101403.44;4895565;29;20040;-86
2022/04/15 02:02:24;;;;;;;15.77;8.05;;;;;;;9.14;56.12;101403.03;4918640;29;20099;-89
2022/04/15 02:04:58;;;;;;;15.20;8.80;;;;;;;9.27;56.28;101419.78;4924997;29;20050;-88
2022/04/15 02:07:23;;;;;;;18.48;8.23;;;;;;;9.19;56.12;101394.59;4886730;29;20127;-87
2022/04/15 02:09:55;;;;;;;12.98;7.43;;;;;;;9.01;56.29;101383.63;4917508;29;20043;-88
2022/04/15 02:12:20;;;;;;;12.68;7.57;;;;;;;9.08;56.29;101403.56;4914049;29;20115;-90
2022/04/15 02:14:47;;;;;;;18.10;7.93;;;;;;;9.08;56.07;101383.00;4898220;29;20534;-90
2022/04/15 02:17:22;;;;;;;;;;;;;;;9.24;56.82;101398.56;4888060;29;20040;-89
2022/04/15 02:19:55;;;;;;;13.82;7.57;;;;;;;9.09;56.41;101392.72;4903372;29;19925;-87
2022/04/15 02:22:23;;;;;;;14.20;7.47;;;;;;;9.08;56.49;101377.63;4921587;29;20050;-87
2022/04/15 02:25:02;;;;;;;12.48;8.32;;;;;;;9.01;56.26;101370.22;4883367;29;20044;-86
2022/04/15 02:27:44;;;;;;;16.85;8.82;;;;;;;9.00;56.61;101374.75;4922434;29;20056;-88
2022/04/15 02:30:22;;;;;;;18.08;9.43;;;;;;;8.98;56.44;101374.03;4902435;29;20032;-88
2022/04/15 02:33:03;;;;;;;19.60;9.50;;;;;;;9.11;56.70;101397.97;4872792;29;20036;-86
2022/04/15 02:35:35;;;;;;;18.25;9.45;;;;;;;8.90;56.79;101373.84;4848696;29;20219;-89
2022/04/15 02:38:11;;;;;;;23.25;10.02;;;;;;;8.85;56.79;101382.28;4865149;29;20052;-88
2022/04/15 02:41:11;;;;;;;21.20;10.18;;;;;;;8.69;57.17;101365.81;4851653;29;20088;-89
2022/04/15 02:43:41;;;;;;;21.20;10.77;;;;;;;8.55;57.75;101366.16;4879645;29;20052;-89
2022/04/15 02:46:15;;;;;;;16.17;9.63;;;;;;;8.44;57.70;101367.06;4863869;29;20041;-88
2022/04/15 02:49:08;;;;;;;19.13;9.77;;;;;;;8.51;58.20;101388.81;4859453;29;20104;-88
2022/04/15 02:51:42;;;;;;;21.85;10.57;;;;;;;8.44;58.33;101393.84;4878399;29;20072;-88
2022/04/15 02:54:37;;;;;;;18.90;10.30;;;;;;;8.30;58.75;101370.03;4882300;29;20055;-88
2022/04/15 02:57:04;;;;;;;22.23;11.07;;;;;;;8.24;58.81;101366.00;4858588;29;20046;-90
2022/04/15 02:59:40;;;;;;;19.67;10.70;;;;;;;8.20;59.03;101373.47;4848340;29;20033;-91
2022/04/15 03:02:07;;;;;;;;;;;;;;;8.28;59.47;101388.88;4850104;29;20040;-88
2022/04/15 03:04:42;;;;;;;24.48;10.70;;;;;;;8.13;59.34;101372.28;4866363;29;20391;-90
2022/04/15 03:07:10;;;;;;;20.65;10.65;;;;;;;8.17;59.78;101397.84;4879360;29;20049;-90
2022/04/15 03:09:39;;;;;;;22.48;11.40;;;;;;;8.05;59.86;101366.69;4877410;29;20526;-89
2022/04/15 03:12:19;;;;;;;20.33;11.13;;;;;;;8.18;59.73;101391.50;4851824;29;20155;-90
2022/04/15 03:14:49;;;;;;;22.67;11.20;;;;;;;8.09;59.92;101367.31;4884483;29;20044;-91
2022/04/15 03:17:17;;;;;;;24.17;10.93;;;;;;;8.18;59.83;101377.25;4882637;29;20570;-89
2022/04/15 03:19:46;;;;;;;22.15;10.93;;;;;;;8.15;60.04;101402.47;4866143;29;20037;-91
2022/04/15 03:22:16;;;;;;;26.48;11.18;;;;;;;8.08;59.94;101378.97;4878515;29;20197;-88
2022/04/15 03:24:44;;;;;;;25.05;11.32;;;;;;;8.01;60.39;101386.69;4885835;29;20072;-90
2022/04/15 03:27:11;;;;;;;20.00;12.02;;;;;;;7.92;60.37;101382.94;4913239;29;20043;-88
2022/04/15 03:30:11;;;;;;;29.60;12.18;;;;;;;8.06;60.44;101407.75;4909159;29;20040;-90
2022/04/15 03:32:55;;;;;;;23.10;11.40;;;;;;;8.06;60.39;101411.25;4936242;29;20534;-90
2022/04/15 03:35:21;;;;;;;27.08;11.60;;;;;;;8.20;59.88;101408.28;4903818;29;20479;-90
2022/04/15 03:37:51;;;;;;;22.25;11.55;;;;;;;8.06;60.05;101405.91;4895310;29;20044;-89
2022/04/15 03:40:24;;;;;;;26.08;11.80;;;;;;;8.18;59.92;101415.59;4886476;29;20064;-89
2022/04/15 03:42:57;;;;;;;22.15;11.15;;;;;;;8.21;59.82;101420.69;4920307;29;20580;-91
2022/04/15 03:45:24;;;;;;;19.25;10.57;;;;;;;8.27;59.30;101407.78;4920414;29;20032;-90
2022/04/15 03:48:12;;;;;;;27.77;11.30;;;;;;;8.19;59.33;101389.66;4904122;29;20084;-89
2022/04/15 03:50:40;;;;;;;22.52;10.68;;;;;;;8.30;58.95;101413.72;4938184;29;20126;-88
2022/04/15 03:53:18;;;;;;;26.58;10.45;;;;;;;8.31;59.00;101409.22;4920140;29;20036;-89
2022/04/15 03:55:44;;;;;;;19.60;10.05;;;;;;;8.34;58.78;101404.47;4919992;29;20087;-90
2022/04/15 03:58:13;;;;;;;31.08;10.27;;;;;;;8.34;58.71;101403.63;4879110;29;20036;-89
2022/04/15 04:00:44;;;;;;;28.17;9.90;;;;;;;8.45;58.54;101411.63;4885009;29;20144;-89
2022/04/15 04:03:20;;;;;;;21.58;10.40;;;;;;;8.27;58.39;101392.56;4919436;29;20389;-90
2022/04/15 04:09:08;;;;;;;33.17;11.35;;;;;;;8.59;57.79;101397.94;4946217;29;20096;-89
2022/04/15 04:11:38;;;;;;;24.80;10.82;;;;;;;8.80;57.56;101407.78;4933965;29;20039;-89
2022/04/15 04:14:06;;;;;;;30.10;11.40;;;;;;;8.88;57.17;101394.59;4920826;29;20043;-92
2022/04/15 04:16:32;;;;;;;32.63;12.00;;;;;;;9.12;56.87;101410.38;4932065;29;20043;-89
2022/04/15 04:19:01;;;;;;;24.35;12.30;;;;;;;9.14;56.65;101391.47;4918479;29;20127;-90
2022/04/15 04:21:38;;;;;;;30.83;11.07;;;;;;;9.34;56.30;101411.19;4918425;29;20540;-90
2022/04/15 04:24:12;;;;;;;21.98;12.15;;;;;;;9.43;56.05;101415.75;4906653;29;20122;-92
2022/04/15 04:26:57;;;;;;;29.33;12.30;;;;;;;9.50;56.02;101412.41;4898639;29;20044;-91
2022/04/15 04:29:29;;;;;;;34.22;13.10;;;;;;;9.43;55.85;101397.78;4925748;29;20166;-88
2022/04/15 04:31:58;;;;;;;41.53;13.32;;;;;;;9.78;55.27;101407.25;4936001;29;20108;-90
2022/04/15 04:34:28;;;;;;;34.30;13.60;;;;;;;9.86;55.22;101410.09;4937688;29;20036;-91
2022/04/15 04:36:54;;;;;;;33.00;14.10;;;;;;;9.99;54.83;101407.13;4912703;29;20354;-91
2022/04/15 04:39:29;;;;;;;27.40;13.73;;;;;;;10.02;54.03;101390.75;4932716;29;20107;-91
2022/04/15 04:41:56;;;;;;;29.65;14.38;;;;;;;10.09;54.05;101402.66;4905895;29;20091;-90
2022/04/15 04:44:23;;;;;;;33.97;15.95;;;;;;;10.20;53.63;101401.66;4931135;29;20039;-87
2022/04/15 04:46:56;;;;;;;35.40;16.33;;;;;;;10.34;53.42;101400.41;4911040;29;20489;-85
2022/04/15 04:49:26;;;;;;;40.38;16.27;;;;;;;10.38;53.03;101387.56;4932986;29;20035;-87
2022/04/15 04:51:53;;;;;;;37.95;15.90;;;;;;;10.65;52.44;101403.81;4914168;29;20078;-86
2022/04/15 04:54:22;;;;;;;43.38;15.98;;;;;;;10.78;52.27;101400.81;4914546;29;20043;-84
2022/04/15 04:56:50;;;;;;;35.28;16.40;;;;;;;10.93;51.59;101414.66;4918370;29;20036;-83
2022/04/15 04:59:25;;;;;;;37.60;15.25;;;;;;;11.07;51.49;101421.41;4919851;29;20036;-87
2022/04/15 05:01:52;;;;;;;36.40;15.40;;;;;;;11.13;51.04;101416.31;4927647;29;20050;-87
2022/04/15 05:04:22;;;;;;;39.50;16.20;;;;;;;11.32;50.58;101425.31;4913544;29;20107;-87
2022/04/15 05:06:50;;;;;;;42.55;15.38;;;;;;;11.91;49.05;101399.81;4914566;29;20043;-86
2022/04/15 05:09:16;;;;;;;47.20;16.42;;;;;;;14.32;43.81;101395.56;4921842;29;20092;-88
2022/04/15 05:11:42;;;;;;;38.10;15.02;;;;;;;16.52;39.43;101408.56;4912012;29;20040;-88
2022/04/15 05:14:08;;;;;;;50.15;17.08;;;;;;;18.06;35.10;101407.09;4914362;29;20232;-87
2022/04/15 05:16:34;;;;;;;40.95;16.08;;;;;;;19.69;32.67;101403.41;4897880;29;20058;-86
2022/04/15 05:19:00;;;;;;;42.03;17.20;;;;;;;21.09;30.03;101379.00;4927392;29;20556;-86
2022/04/15 05:21:40;;;;;;;28.52;15.82;;;;;;;22.65;27.72;101396.22;4936001;29;20094;-85
2022/04/15 05:24:08;;;;;;;53.85;16.27;;;;;;;23.72;25.74;101390.50;4899245;29;20044;-87
2022/04/15 05:26:38;;;;;;;43.65;15.93;;;;;;;24.34;23.89;101384.78;4916428;29;20094;-86
2022/04/15 05:29:04;;;;;;;44.08;16.02;;;;;;;25.66;22.90;101400.03;4928212;29;20138;-86
2022/04/15 05:31:31;;;;;;;57.53;15.77;;;;;;;25.26;22.29;101395.31;4922118;29;20047;-88
2022/04/15 05:33:59;;;;;;;33.20;12.82;;;;;;;25.79;21.30;101388.75;4900099;29;20068;-89
2022/04/15 05:36:28;;;;;;;30.30;12.45;;;;;;;26.49;20.59;101389.50;4894686;29;20187;-93
2022/04/15 05:38:53;;;;;;;28.23;11.85;;;;;;;27.17;19.63;101398.59;4922452;29;20063;-87
2022/04/15 05:41:20;;;;;;;26.15;11.75;;;;;;;27.39;19.51;101384.84;4902852;29;20054;-89
2022/04/15 05:43:53;;;;;;;33.53;11.60;;;;;;;28.54;18.62;101389.47;4902072;29;20497;-88
2022/04/15 05:46:24;;;;;;;28.80;12.00;;;;;;;29.45;17.79;101383.75;4900653;29;20134;-86
2022/04/15 05:48:50;;;;;;;31.02;11.63;;;;;;;29.77;17.13;101376.41;4926516;29;20028;-88
2022/04/15 05:51:15;;;;;;;30.90;12.23;;;;;;;29.39;17.81;101384.81;4929363;29;20040;-89
2022/04/15 05:53:42;;;;;;;28.08;10.80;;;;;;;30.09;16.60;101393.66;4927483;29;20055;-86
2022/04/15 05:56:09;;;;;;;28.08;11.82;;;;;;;30.41;16.37;101389.84;4928039;29;20091;-86
2022/04/15 05:58:37;;;;;;;32.40;12.93;;;;;;;30.75;16.34;101394.03;4927576;29;20094;-88
2022/04/15 06:01:05;;;;;;;28.38;12.07;;;;;;;31.02;15.82;101382.59;4914668;29;20480;-89
2022/04/15 06:03:37;;;;;;;28.55;12.45;;;;;;;30.29;16.20;101389.28;4898956;29;20044;-89
2022/04/15 06:06:04;;;;;;;33.40;11.52;;;;;;;30.90;15.69;101397.63;4905927;29;20043;-87
2022/04/15 06:08:30;;;;;;;36.90;13.38;;;;;;;31.63;15.27;101382.44;4908311;29;20141;-88
2022/04/15 06:10:57;;;;;;;33.45;11.93;;;;;;;31.61;14.88;101393.03;4938877;29;20048;-88
2022/04/15 06:13:25;;;;;;;35.38;11.85;;;;;;;31.80;14.98;101398.75;4935249;29;20437;-91
2022/04/15 06:16:01;;;;;;;30.33;11.93;;;;;;;32.40;14.60;101393.09;4934099;29;20134;-89
2022/04/15 06:18:34;;;;;;;30.48;11.07;;;;;;;33.43;13.88;101393.81;4917519;29;20050;-88
2022/04/15 06:21:05;;;;;;;29.50;12.02;;;;;;;33.63;13.55;101391.91;4918125;29;20083;-90
2022/04/15 06:23:35;;;;;;;35.97;11.07;;;;;;;34.65;13.17;101401.59;4917420;29;20046;-88
2022/04/15 06:26:01;;;;;;;31.33;13.02;;;;;;;35.25;12.71;101381.19;4923307;29;20287;-89
2022/04/15 06:28:30;;;;;;;42.50;13.70;;;;;;;35.23;12.93;101393.81;4908941;29;20043;-87
2022/04/15 06:30:58;;;;;;;30.33;11.82;;;;;;;35.45;12.61;101399.53;4895399;29;20040;-91
2022/04/15 06:33:25;;;;;;;39.00;12.20;;;;;;;35.30;12.89;101394.22;4903356;29;20420;-89
2022/04/15 06:35:51;;;;;;;36.28;11.27;;;;;;;35.81;12.30;101395.16;4919097;29;20047;-90
2022/04/15 06:38:21;;;;;;;40.90;11.32;;;;;;;36.40;12.94;101390.41;4923207;29;20608;-86
2022/04/15 06:40:50;;;;;;;41.47;12.07;;;;;;;36.92;12.17;101393.53;4908289;29;20565;-88
2022/04/15 06:43:16;;;;;;;41.20;11.88;;;;;;;37.11;11.60;101378.50;4905839;29;20119;-86
2022/04/15 06:45:46;;;;;;;24.45;10.02;;;;;;;37.53;11.25;101393.84;4919849;29;20154;-91
2022/04/15 06:48:16;;;;;;;28.10;9.13;;;;;;;37.92;10.21;101378.03;4942585;29;20048;-90
2022/04/15 06:50:44;;;;;;;17.90;6.60;;;;;;;38.60;9.66;101380.34;4914580;29;20090;-89
2022/04/15 06:53:13;;;;;;;15.18;5.07;;;;;;;38.80;9.06;101402.13;4930795;29;20043;-88
2022/04/15 06:55:42;;;;;;;13.38;5.50;;;;;;;37.18;9.97;101393.72;4919809;29;20043;-93
2022/04/15 06:58:10;;;;;;;24.30;9.18;;;;;;;37.70;10.19;101381.00;4932216;29;20075;-91
2022/04/15 07:00:48;;;;;;;25.83;11.40;;;;;;;37.04;11.50;101387.34;4923287;29;20039;-88
2022/04/15 07:03:17;;;;;;;25.98;13.90;;;;;;;34.92;13.54;101387.97;4906325;29;20039;-87
2022/04/15 07:05:57;;;;;;;25.73;13.18;;;;;;;33.01;15.26;101388.94;4922587;29;20130;-86
2022/04/15 07:08:23;;;;;;;27.27;13.52;;;;;;;32.50;15.52;101394.97;4906048;29;20084;-90
2022/04/15 07:10:55;;;;;;;27.75;13.40;;;;;;;32.66;15.82;101393.72;4915786;29;20063;-87
2022/04/15 07:13:23;;;;;;;32.88;13.52;;;;;;;32.33;15.62;101404.53;4928798;29;20201;-89
2022/04/15 07:15:57;;;;;;;22.83;13.65;;;;;;;31.83;15.59;101389.84;4908373;29;20131;-87
2022/04/15 07:18:29;;;;;;;26.40;14.90;;;;;;;31.34;16.34;101379.47;4905375;29;20051;-91
2022/04/15 07:20:59;;;;;;;23.55;14.10;;;;;;;32.39;15.28;101410.94;4890349;29;20067;-93
2022/04/15 07:23:39;;;;;;;26.55;13.35;;;;;;;32.30;15.28;101412.66;4914100;29;20058;-89
2022/04/15 07:26:06;;;;;;;33.90;12.52;;;;;;;31.65;15.36;101396.88;4916409;29;20098;-84
2022/04/15 07:28:32;;;;;;;31.77;13.02;;;;;;;31.62;15.58;101407.75;4896751;29;20196;-85
2022/04/15 07:30:57;;;;;;;22.40;13.50;;;;;;;31.29;16.11;101402.53;4902501;29;20027;-83
2022/04/15 07:33:25;;;;;;;25.45;12.50;;;;;;;31.45;15.98;101408.09;4942795;29;20051;-83
2022/04/15 07:35:52;;;;;;;20.02;10.77;;;;;;;32.56;15.18;101393.84;4932640;29;20580;-85
2022/04/15 07:38:17;;;;;;;21.30;11.52;;;;;;;33.04;14.89;101407.03;4915952;29;20139;-86
2022/04/15 07:40:45;;;;;;;12.68;10.55;;;;;;;33.46;14.63;101411.91;4897351;29;20036;-83
2022/04/15 07:43:10;;;;;;;20.67;11.15;;;;;;;33.04;14.64;101416.25;4909727;29;20056;-85
2022/04/15 07:45:38;;;;;;;38.60;11.80;;;;;;;33.12;14.65;101412.81;4895927;29;20123;-86
2022/04/15 07:48:10;;;;;;;15.43;8.27;;;;;;;32.75;14.37;101408.69;4892778;29;20099;-85
2022/04/15 07:50:40;;;;;;;18.83;8.00;;;;;;;32.36;14.63;101408.72;4901787;29;20044;-85
2022/04/15 07:53:18;;;;;;;13.35;6.30;;;;;;;30.83;15.19;101413.69;4896310;29;20032;-84
2022/04/15 07:55:48;;;;;;;9.60;6.07;;;;;;;30.52;15.48;101409.28;4912232;29;20052;-86
2022/04/15 07:58:15;;;;;;;8.73;6.25;;;;;;;30.80;15.28;101402.34;4923891;29;20654;-85
2022/04/15 08:00:51;;;;;;;12.52;6.82;;;;;;;30.21;15.90;101407.28;4902716;29;20040;-80
2022/04/15 08:03:20;;;;;;;18.13;7.20;;;;;;;28.54;17.48;101409.69;4917588;29;20078;-84
2022/04/15 08:06:11;;;;;;;11.25;6.20;;;;;;;28.72;17.15;101413.97;4909945;29;20050;-84
2022/04/15 08:08:39;;;;;;;13.07;6.68;;;;;;;29.38;16.60;101404.47;4911669;29;20452;-84
2022/04/15 08:11:04;;;;;;;9.13;5.40;;;;;;;28.68;17.13;101400.91;4932698;29;20071;-83
2022/04/15 08:13:32;;;;;;;8.40;5.43;;;;;;;29.12;16.51;101396.00;4928404;29;20067;-82
2022/04/15 08:16:01;;;;;;;10.57;5.68;;;;;;;29.59;16.26;101399.84;4892561;29;20044;-85
2022/04/15 08:18:34;;;;;;;10.35;4.80;;;;;;;29.17;16.28;101389.66;4927717;29;20059;-84
2022/04/15 08:20:59;;;;;;;11.80;4.95;;;;;;;29.80;16.00;101384.16;4922854;29;20509;-84
2022/04/15 08:23:27;;;;;;;7.63;4.72;;;;;;;29.96;16.03;101383.09;4890737;29;20434;-82
2022/04/15 08:25:57;;;;;;;7.78;4.90;;;;;;;29.93;15.15;101386.44;4910540;29;20083;-84
2022/04/15 08:28:23;;;;;;;7.38;4.40;;;;;;;29.59;15.54;101367.44;4909339;29;20470;-84
2022/04/15 08:30:50;;;;;;;7.20;4.05;;;;;;;29.58;15.28;101387.94;4886500;29;20486;-83
2022/04/15 08:33:16;;;;;;;9.23;4.57;;;;;;;29.54;15.55;101381.25;4871209;29;20032;-83
2022/04/15 08:35:41;;;;;;;6.63;4.53;;;;;;;29.51;15.51;101387.34;4887185;29;20092;-82
2022/04/15 08:38:07;;;;;;;7.75;4.70;;;;;;;30.02;15.14;101368.16;4870075;29;20036;-84
2022/04/15 08:40:35;;;;;;;13.20;4.93;;;;;;;29.36;15.94;101374.28;4880976;29;20120;-82
2022/04/15 08:43:02;;;;;;;12.25;5.00;;;;;;;30.21;15.24;101378.72;4868979;29;20086;-82
2022/04/15 08:45:31;;;;;;;17.25;5.38;;;;;;;31.06;14.81;101381.75;4905710;29;20127;-83
2022/04/15 08:47:59;;;;;;;17.70;5.55;;;;;;;31.55;14.61;101352.47;4900641;29;20400;-83
2022/04/15 08:50:28;;;;;;;9.13;4.93;;;;;;;32.32;12.93;101361.16;4874023;29;20044;-82
2022/04/15 08:52:54;;;;;;;11.40;6.20;;;;;;;32.13;13.65;101369.38;4868697;29;20055;-84
2022/04/15 08:55:21;;;;;;;8.27;5.50;;;;;;;32.62;13.01;101370.41;4872662;29;20033;-84
2022/04/15 08:57:50;;;;;;;9.13;5.18;;;;;;;31.43;13.79;101357.53;4881023;29;20120;-83
2022/04/15 09:00:15;;;;;;;9.93;5.90;;;;;;;30.77;14.78;101370.41;4915528;29;20508;-82
2022/04/15 09:02:41;;;;;;;6.43;5.10;;;;;;;30.13;15.49;101354.28;4895879;29;20034;-83
2022/04/15 09:05:08;;;;;;;13.02;6.45;;;;;;;31.00;15.65;101345.97;4904764;29;20028;-83
2022/04/15 09:07:35;;;;;;;12.05;7.28;;;;;;;31.00;16.70;101346.81;4880647;29;20028;-83
2022/04/15 09:10:02;;;;;;;10.27;6.10;;;;;;;30.12;16.96;101347.09;4908807;29;20032;-85
2022/04/15 09:12:29;;;;;;;10.38;6.75;;;;;;;29.98;17.71;101341.25;4881935;29;20044;-83
2022/04/15 09:15:00;;;;;;;10.85;6.03;;;;;;;31.37;16.89;101336.41;4898701;29;20683;-86
2022/04/15 09:17:31;;;;;;;12.45;5.93;;;;;;;31.77;16.34;101335.38;4886390;29;20549;-83
2022/04/15 09:19:59;;;;;;;9.85;6.10;;;;;;;32.62;15.71;101331.44;4901824;29;20138;-83
2022/04/15 09:22:29;;;;;;;9.75;6.22;;;;;;;31.23;18.08;101339.78;4909657;29;20422;-86
2022/04/15 09:24:55;;;;;;;12.18;6.20;;;;;;;31.15;17.66;101342.34;4917005;29;20150;-85
2022/04/15 09:27:23;;;;;;;11.82;5.20;;;;;;;30.65;16.98;101339.38;4916424;29;20027;-84
2022/04/15 09:29:54;;;;;;;5.93;4.85;;;;;;;30.86;16.73;101335.47;4912600;29;20040;-83
2022/04/15 09:32:22;;;;;;;6.15;4.82;;;;;;;30.19;17.18;101328.25;4884190;29;20110;-83
2022/04/15 09:35:04;;;;;;;7.47;4.53;;;;;;;30.06;17.27;101330.47;4915001;29;20539;-82
2022/04/15 09:37:42;;;;;;;7.93;4.43;;;;;;;31.51;15.55;101320.78;4898473;29;20051;-83
2022/04/15 09:40:18;;;;;;;11.05;4.47;;;;;;;30.92;15.32;101317.66;4875028;29;20040;-82
2022/04/15 09:42:56;;;;;;;9.80;4.65;;;;;;;30.94;15.50;101322.13;4914432;29;20125;-82
2022/04/15 09:45:30;;;;;;;6.63;4.30;;;;;;;30.86;15.75;101316.03;4925246;29;20548;-84
2022/04/15 09:48:03;;;;;;;7.80;4.45;;;;;;;31.54;15.03;101306.34;4929596;29;20100;-84
2022/04/15 09:50:31;;;;;;;10.98;4.93;;;;;;;32.64;13.93;101320.84;4912173;29;20549;-83
2022/04/15 09:53:17;;;;;;;6.50;4.70;;;;;;;32.41;13.90;101316.88;4899260;29;20032;-84
2022/04/15 09:55:46;;;;;;;8.77;4.75;;;;;;;33.19;13.29;101317.75;4914374;29;20059;-83
2022/04/15 09:58:17;;;;;;;6.65;4.00;;;;;;;33.17;13.20;101300.50;4898976;29;20044;-83
2022/04/15 10:00:48;;;;;;;8.30;4.10;;;;;;;32.68;13.45;101313.56;4897012;29;20050;-83
2022/04/15 10:03:26;;;;;;;8.32;4.40;;;;;;;31.78;14.23;101298.13;4918331;29;20067;-82
2022/04/15 10:05:54;;;;;;;14.48;4.30;;;;;;;31.64;14.52;101303.50;4918963;29;20556;-84
2022/04/15 10:08:24;;;;;;;8.07;4.05;;;;;;;32.43;13.78;101286.81;4883931;29;20055;-82
2022/04/15 10:10:50;;;;;;;6.80;4.03;;;;;;;32.53;13.42;101292.28;4903952;29;20051;-83
2022/04/15 10:13:19;;;;;;;8.68;4.22;;;;;;;33.88;12.70;101295.06;4899885;29;20040;-82
2022/04/15 10:15:47;;;;;;;6.82;3.85;;;;;;;31.88;13.71;101284.16;4913037;29;20040;-83
2022/04/15 10:18:12;;;;;;;6.75;4.53;;;;;;;31.69;13.90;101291.53;4898939;29;20449;-83
2022/04/15 10:20:39;;;;;;;7.00;4.00;;;;;;;30.94;14.46;101278.53;4924818;29;20036;-83
2022/04/15 10:23:07;;;;;;;8.50;4.10;;;;;;;31.62;14.09;101264.06;4911992;29;20104;-84
2022/04/15 10:25:34;;;;;;;6.20;3.90;;;;;;;32.46;13.35;101272.28;4922854;29;20071;-83
2022/04/15 10:28:21;;;;;;;8.50;4.20;;;;;;;32.93;13.01;101264.28;4884170;29;20047;-82
2022/04/15 10:31:03;;;;;;;5.88;3.88;;;;;;;32.76;13.21;101270.34;4904388;29;20558;-84
2022/04/15 10:33:32;;;;;;;9.10;3.65;;;;;;;33.36;12.83;101251.19;4893683;29;20081;-88
2022/04/15 10:35:59;;;;;;;6.32;3.70;;;;;;;33.92;13.22;101262.66;4905450;29;20036;-87
2022/04/15 10:38:25;;;;;;;6.93;3.85;;;;;;;32.07;14.42;101267.63;4893240;29;20497;-85
2022/04/15 10:40:52;;;;;;;6.78;3.72;;;;;;;31.05;15.51;101263.50;4906945;29;20051;-84
2022/04/15 10:43:22;;;;;;;9.23;4.20;;;;;;;30.75;16.57;101264.41;4896248;29;20040;-85
2022/04/15 10:45:51;;;;;;;8.50;4.43;;;;;;;31.62;15.84;101269.59;4908745;29;20464;-84
2022/04/15 10:48:40;;;;;;;8.70;4.15;;;;;;;30.66;16.88;101257.78;4897369;29;20054;-83
2022/04/15 10:51:26;;;;;;;10.52;4.43;;;;;;;29.77;17.95;101260.03;4929930;29;20420;-84
2022/04/15 10:53:56;;;;;;;9.52;4.65;;;;;;;29.12;18.44;101256.75;4910767;29;20432;-83
2022/04/15 10:56:24;;;;;;;7.25;4.55;;;;;;;28.89;18.62;101244.19;4892531;29;20234;-82
2022/04/15 11:01:59;;;;;;;5.10;4.20;;;;;;;29.11;19.29;101244.88;4934960;29;20050;-80
2022/04/15 11:04:25;;;;;;;6.68;4.35;;;;;;;28.83;19.90;101249.69;4913077;29;20103;-82
2022/04/15 11:06:51;;;;;;;11.98;4.82;;;;;;;29.99;18.40;101248.66;4891737;29;20425;-83
2022/04/15 11:09:21;;;;;;;7.15;4.00;;;;;;;27.81;20.34;101245.31;4931324;29;20046;-81
2022/04/15 11:11:50;;;;;;;8.10;4.35;;;;;;;27.15;21.17;101247.06;4884356;29;20399;-80
2022/04/15 11:14:18;;;;;;;8.23;4.93;;;;;;;28.40;20.71;101240.56;4900908;29;20036;-82
2022/04/15 11:17:07;;;;;;;12.38;5.13;;;;;;;27.64;21.18;101243.47;4931325;29;20126;-82
2022/04/15 11:19:33;;;;;;;8.32;5.07;;;;;;;27.87;21.15;101241.53;4918439;29;20056;-83
2022/04/15 11:22:01;;;;;;;8.48;4.88;;;;;;;27.22;21.38;101237.78;4913592;29;20119;-83
2022/04/15 11:24:30;;;;;;;7.53;4.80;;;;;;;25.88;23.17;101227.53;4912991;29;20417;-82
2022/04/15 11:27:03;;;;;;;7.88;4.97;;;;;;;26.22;23.18;101222.06;4884761;29;20123;-81
2022/04/15 11:29:33;;;;;;;11.55;4.97;;;;;;;26.98;21.90;101229.75;4930681;29;20055;-81
2022/04/15 11:32:00;;;;;;;6.10;4.75;;;;;;;27.00;21.89;101235.84;4935442;29;20524;-80
2022/04/15 11:34:26;;;;;;;8.38;5.10;;;;;;;27.36;21.31;101223.31;4896030;29;20039;-83
2022/04/15 11:36:56;;;;;;;9.18;5.10;;;;;;;26.16;22.81;101223.03;4932800;29;20055;-80
2022/04/15 11:39:23;;;;;;;10.07;5.28;;;;;;;26.32;21.96;101227.72;4925334;29;20036;-81
2022/04/15 11:41:53;;;;;;;12.85;5.03;;;;;;;25.40;23.39;101209.59;4920210;29;20048;-81
2022/04/15 11:44:19;;;;;;;9.73;5.70;;;;;;;25.99;22.76;101202.91;4911250;29;20122;-80
2022/04/15 11:46:49;;;;;;;12.15;5.30;;;;;;;26.25;22.30;101204.19;4885102;29;20039;-82